sensor_id;sensor_type;location;lat;lon;timestamp;pressure;altitude;pressure_sealevel;temperature;humidity
81931;BME280;71395;43.488;1.472;2024-03-02T00:00:26;98777.91;;;9.29;71.50
81931;BME280;71395;43.488;1.472;2024-03-02T00:02:52;98784.38;;;9.23;70.54
81931;BME280;71395;43.488;1.472;2024-03-02T00:05:19;98797.25;;;9.21;71.69
81931;BME280;71395;43.488;1.472;2024-03-02T00:07:52;98797.78;;;9.18;72.27
81931;BME280;71395;43.488;1.472;2024-03-02T00:10:20;98803.38;;;9.22;72.45
81931;BME280;71395;43.488;1.472;2024-03-02T00:12:50;98796.97;;;9.23;72.03
81931;BME280;71395;43.488;1.472;2024-03-02T00:17:45;98810.97;;;9.44;70.97
81931;BME280;71395;43.488;1.472;2024-03-02T00:20:15;98806.41;;;9.44;71.04
81931;BME280;71395;43.488;1.472;2024-03-02T00:22:43;98788.53;;;9.40;71.69
81931;BME280;71395;43.488;1.472;2024-03-02T00:25:09;98795.47;;;9.46;72.29
81931;BME280;71395;43.488;1.472;2024-03-02T00:27:35;98798.88;;;9.51;72.31
81931;BME280;71395;43.488;1.472;2024-03-02T00:30:13;98812.19;;;9.62;72.16
81931;BME280;71395;43.488;1.472;2024-03-02T00:32:51;98806.59;;;9.58;71.34
81931;BME280;71395;43.488;1.472;2024-03-02T00:35:20;98800.66;;;9.66;71.61
81931;BME280;71395;43.488;1.472;2024-03-02T00:37:48;98797.72;;;9.63;70.33
81931;BME280;71395;43.488;1.472;2024-03-02T00:40:14;98778.25;;;9.57;70.97
81931;BME280;71395;43.488;1.472;2024-03-02T00:42:40;98803.03;;;9.68;71.36
81931;BME280;71395;43.488;1.472;2024-03-02T00:45:08;98805.69;;;9.68;71.10
81931;BME280;71395;43.488;1.472;2024-03-02T00:47:40;98796.59;;;9.69;71.60
81931;BME280;71395;43.488;1.472;2024-03-02T00:50:07;98802.97;;;9.73;71.52
81931;BME280;71395;43.488;1.472;2024-03-02T00:52:34;98788.56;;;9.69;70.48
81931;BME280;71395;43.488;1.472;2024-03-02T00:54:59;98793.06;;;9.73;70.74
81931;BME280;71395;43.488;1.472;2024-03-02T00:57:27;98793.31;;;9.77;70.52
81931;BME280;71395;43.488;1.472;2024-03-02T00:59:53;98796.75;;;9.82;71.69
81931;BME280;71395;43.488;1.472;2024-03-02T01:02:18;98787.72;;;9.73;71.68
81931;BME280;71395;43.488;1.472;2024-03-02T01:04:45;98794.06;;;9.82;71.14
81931;BME280;71395;43.488;1.472;2024-03-02T01:07:11;98798.34;;;9.83;71.51
81931;BME280;71395;43.488;1.472;2024-03-02T01:09:36;98796.19;;;9.86;71.77
81931;BME280;71395;43.488;1.472;2024-03-02T01:12:02;98787.66;;;9.78;71.88
81931;BME280;71395;43.488;1.472;2024-03-02T01:14:28;98787.06;;;9.87;71.29
81931;BME280;71395;43.488;1.472;2024-03-02T01:16:54;98765.16;;;9.79;72.01
81931;BME280;71395;43.488;1.472;2024-03-02T01:19:20;98769.63;;;9.89;71.55
81931;BME280;71395;43.488;1.472;2024-03-02T01:21:46;98763.28;;;9.85;71.71
81931;BME280;71395;43.488;1.472;2024-03-02T01:24:12;98758.72;;;9.86;71.17
81931;BME280;71395;43.488;1.472;2024-03-02T01:26:38;98765.91;;;9.90;71.03
81931;BME280;71395;43.488;1.472;2024-03-02T01:29:04;98758.72;;;9.86;71.50
81931;BME280;71395;43.488;1.472;2024-03-02T01:31:30;98748.50;;;9.88;71.31
81931;BME280;71395;43.488;1.472;2024-03-02T01:33:55;98740.25;;;9.84;70.92
81931;BME280;71395;43.488;1.472;2024-03-02T01:36:21;98718.44;;;9.72;71.95
81931;BME280;71395;43.488;1.472;2024-03-02T01:38:47;98721.34;;;9.75;71.33
81931;BME280;71395;43.488;1.472;2024-03-02T01:41:13;98737.06;;;9.82;71.46
81931;BME280;71395;43.488;1.472;2024-03-02T01:43:38;98706.97;;;9.66;71.21
81931;BME280;71395;43.488;1.472;2024-03-02T01:46:04;98733.28;;;9.83;71.85
81931;BME280;71395;43.488;1.472;2024-03-02T01:48:30;98727.69;;;9.79;71.37
81931;BME280;71395;43.488;1.472;2024-03-02T01:50:56;98700.25;;;9.69;70.81
81931;BME280;71395;43.488;1.472;2024-03-02T01:53:21;98710.41;;;9.72;72.53
81931;BME280;71395;43.488;1.472;2024-03-02T01:55:47;98710.63;;;9.75;71.12
81931;BME280;71395;43.488;1.472;2024-03-02T01:58:13;98712.00;;;9.73;71.64
81931;BME280;71395;43.488;1.472;2024-03-02T02:00:39;98712.78;;;9.73;71.79
81931;BME280;71395;43.488;1.472;2024-03-02T02:03:05;98679.28;;;9.52;72.43
81931;BME280;71395;43.488;1.472;2024-03-02T02:05:32;98708.34;;;9.64;71.10
81931;BME280;71395;43.488;1.472;2024-03-02T02:07:58;98729.19;;;9.67;71.17
81931;BME280;71395;43.488;1.472;2024-03-02T02:10:24;98711.63;;;9.55;71.62
81931;BME280;71395;43.488;1.472;2024-03-02T02:12:50;98709.56;;;9.47;72.39
81931;BME280;71395;43.488;1.472;2024-03-02T02:15:26;98711.16;;;9.48;71.61
81931;BME280;71395;43.488;1.472;2024-03-02T02:17:53;98712.53;;;9.46;71.62
81931;BME280;71395;43.488;1.472;2024-03-02T02:20:23;98702.47;;;9.32;71.95
81931;BME280;71395;43.488;1.472;2024-03-02T02:23:00;98714.50;;;9.35;71.98
81931;BME280;71395;43.488;1.472;2024-03-02T02:25:27;98711.34;;;9.28;71.45
81931;BME280;71395;43.488;1.472;2024-03-02T02:27:53;98703.59;;;9.26;71.28
81931;BME280;71395;43.488;1.472;2024-03-02T02:30:27;98698.31;;;9.21;72.00
81931;BME280;71395;43.488;1.472;2024-03-02T02:32:53;98695.06;;;9.24;72.79
81931;BME280;71395;43.488;1.472;2024-03-02T02:35:19;98687.84;;;9.25;72.46
81931;BME280;71395;43.488;1.472;2024-03-02T02:37:48;98686.75;;;9.26;72.84
81931;BME280;71395;43.488;1.472;2024-03-02T02:40:15;98658.25;;;9.16;72.76
81931;BME280;71395;43.488;1.472;2024-03-02T02:42:41;98658.75;;;9.18;72.39
81931;BME280;71395;43.488;1.472;2024-03-02T02:45:07;98663.53;;;9.21;71.82
81931;BME280;71395;43.488;1.472;2024-03-02T02:47:33;98658.44;;;9.20;72.31
81931;BME280;71395;43.488;1.472;2024-03-02T02:50:04;98646.47;;;9.17;72.23
81931;BME280;71395;43.488;1.472;2024-03-02T02:52:32;98651.56;;;9.14;72.88
81931;BME280;71395;43.488;1.472;2024-03-02T02:54:59;98633.72;;;9.04;71.41
81931;BME280;71395;43.488;1.472;2024-03-02T02:57:25;98631.66;;;9.01;71.94
81931;BME280;71395;43.488;1.472;2024-03-02T02:59:50;98634.78;;;9.08;72.10
81931;BME280;71395;43.488;1.472;2024-03-02T03:02:16;98622.03;;;8.95;72.67
81931;BME280;71395;43.488;1.472;2024-03-02T03:04:42;98616.69;;;8.95;71.80
81931;BME280;71395;43.488;1.472;2024-03-02T03:07:07;98608.50;;;8.86;71.81
81931;BME280;71395;43.488;1.472;2024-03-02T03:09:33;98614.66;;;8.87;71.10
81931;BME280;71395;43.488;1.472;2024-03-02T03:12:02;98605.31;;;8.84;72.04
81931;BME280;71395;43.488;1.472;2024-03-02T03:14:28;98592.03;;;8.74;72.59
81931;BME280;71395;43.488;1.472;2024-03-02T03:16:54;98581.69;;;8.67;72.27
81931;BME280;71395;43.488;1.472;2024-03-02T03:19:19;98586.50;;;8.65;72.55
81931;BME280;71395;43.488;1.472;2024-03-02T03:21:45;98573.41;;;8.64;72.46
81931;BME280;71395;43.488;1.472;2024-03-02T03:24:11;98563.59;;;8.54;71.84
81931;BME280;71395;43.488;1.472;2024-03-02T03:26:36;98563.34;;;8.56;71.67
81931;BME280;71395;43.488;1.472;2024-03-02T03:29:02;98558.56;;;8.52;72.29
81931;BME280;71395;43.488;1.472;2024-03-02T03:31:29;98563.59;;;8.54;72.48
81931;BME280;71395;43.488;1.472;2024-03-02T03:33:54;98527.47;;;8.27;72.75
81931;BME280;71395;43.488;1.472;2024-03-02T03:36:20;98541.84;;;8.37;71.43
81931;BME280;71395;43.488;1.472;2024-03-02T03:38:46;98553.28;;;8.42;72.12
81931;BME280;71395;43.488;1.472;2024-03-02T03:41:11;98543.72;;;8.36;72.36
81931;BME280;71395;43.488;1.472;2024-03-02T03:43:37;98546.13;;;8.33;72.53
81931;BME280;71395;43.488;1.472;2024-03-02T03:46:03;98543.72;;;8.36;72.65
81931;BME280;71395;43.488;1.472;2024-03-02T03:48:29;98533.31;;;8.29;72.83
81931;BME280;71395;43.488;1.472;2024-03-02T03:50:56;98532.28;;;8.31;71.74
81931;BME280;71395;43.488;1.472;2024-03-02T03:53:22;98544.53;;;8.32;72.39
81931;BME280;71395;43.488;1.472;2024-03-02T03:55:49;98544.53;;;8.32;71.55
81931;BME280;71395;43.488;1.472;2024-03-02T03:58:15;98535.72;;;8.31;72.26
81931;BME280;71395;43.488;1.472;2024-03-02T04:00:42;98523.44;;;8.30;72.85
81931;BME280;71395;43.488;1.472;2024-03-02T04:03:08;98510.13;;;8.25;72.02
81931;BME280;71395;43.488;1.472;2024-03-02T04:05:34;98505.06;;;8.23;72.05
81931;BME280;71395;43.488;1.472;2024-03-02T04:08:00;98510.94;;;8.25;72.67
81931;BME280;71395;43.488;1.472;2024-03-02T04:10:26;98515.22;;;8.26;71.91
81931;BME280;71395;43.488;1.472;2024-03-02T04:12:52;98510.44;;;8.18;72.68
81931;BME280;71395;43.488;1.472;2024-03-02T04:15:17;98493.38;;;8.14;72.36
81931;BME280;71395;43.488;1.472;2024-03-02T04:17:44;98505.34;;;8.22;72.85
81931;BME280;71395;43.488;1.472;2024-03-02T04:20:10;98498.94;;;8.23;72.90
81931;BME280;71395;43.488;1.472;2024-03-02T04:22:38;98500.84;;;8.17;72.12
81931;BME280;71395;43.488;1.472;2024-03-02T04:25:04;98501.41;;;8.14;72.40
81931;BME280;71395;43.488;1.472;2024-03-02T04:27:32;98494.97;;;8.15;71.98
81931;BME280;71395;43.488;1.472;2024-03-02T04:29:59;98492.34;;;8.10;72.33
81931;BME280;71395;43.488;1.472;2024-03-02T04:32:26;98492.31;;;8.15;72.77
81931;BME280;71395;43.488;1.472;2024-03-02T04:34:52;98491.25;;;8.16;71.95
81931;BME280;71395;43.488;1.472;2024-03-02T04:37:18;98489.63;;;8.15;72.80
81931;BME280;71395;43.488;1.472;2024-03-02T04:39:43;98460.19;;;7.96;72.47
81931;BME280;71395;43.488;1.472;2024-03-02T04:42:09;98450.34;;;7.92;72.78
81931;BME280;71395;43.488;1.472;2024-03-02T04:44:35;98468.16;;;8.01;72.18
81931;BME280;71395;43.488;1.472;2024-03-02T04:47:01;98471.59;;;8.02;72.69
81931;BME280;71395;43.488;1.472;2024-03-02T04:49:26;98473.19;;;8.03;72.62
81931;BME280;71395;43.488;1.472;2024-03-02T04:51:52;98477.41;;;8.09;72.93
81931;BME280;71395;43.488;1.472;2024-03-02T04:54:18;98469.44;;;8.04;72.43
81931;BME280;71395;43.488;1.472;2024-03-02T04:56:43;98465.69;;;8.05;72.81
81931;BME280;71395;43.488;1.472;2024-03-02T04:59:16;98464.91;;;8.04;72.53
81931;BME280;71395;43.488;1.472;2024-03-02T05:01:42;98466.78;;;8.04;72.33
81931;BME280;71395;43.488;1.472;2024-03-02T05:04:08;98459.84;;;8.03;73.03
81931;BME280;71395;43.488;1.472;2024-03-02T05:06:38;98462.53;;;8.03;73.23
81931;BME280;71395;43.488;1.472;2024-03-02T05:09:05;98448.66;;;8.01;73.46
81931;BME280;71395;43.488;1.472;2024-03-02T05:11:30;98435.59;;;7.99;72.76
81931;BME280;71395;43.488;1.472;2024-03-02T05:14:02;98447.56;;;8.07;73.61
81931;BME280;71395;43.488;1.472;2024-03-02T05:16:28;98432.63;;;8.06;73.49
81931;BME280;71395;43.488;1.472;2024-03-02T05:18:54;98442.69;;;8.14;73.54
81931;BME280;71395;43.488;1.472;2024-03-02T05:21:19;98426.19;;;8.07;72.75
81931;BME280;71395;43.488;1.472;2024-03-02T05:23:45;98427.25;;;8.11;73.30
81931;BME280;71395;43.488;1.472;2024-03-02T05:26:11;98422.91;;;8.15;72.76
81931;BME280;71395;43.488;1.472;2024-03-02T05:28:39;98427.69;;;8.18;72.96
81931;BME280;71395;43.488;1.472;2024-03-02T05:31:06;98421.81;;;8.21;72.85
81931;BME280;71395;43.488;1.472;2024-03-02T05:33:32;98407.38;;;8.22;73.05
81931;BME280;71395;43.488;1.472;2024-03-02T05:35:58;98418.81;;;8.28;73.55
81931;BME280;71395;43.488;1.472;2024-03-02T05:38:24;98407.63;;;8.26;73.02
81931;BME280;71395;43.488;1.472;2024-03-02T05:40:50;98416.34;;;8.37;73.45
81931;BME280;71395;43.488;1.472;2024-03-02T05:43:16;98396.34;;;8.29;74.06
81931;BME280;71395;43.488;1.472;2024-03-02T05:45:41;98396.03;;;8.36;73.16
81931;BME280;71395;43.488;1.472;2024-03-02T05:48:07;98402.66;;;8.43;72.72
81931;BME280;71395;43.488;1.472;2024-03-02T05:50:34;98405.34;;;8.43;72.77
81931;BME280;71395;43.488;1.472;2024-03-02T05:53:00;98384.03;;;8.38;72.90
81931;BME280;71395;43.488;1.472;2024-03-02T05:55:26;98377.88;;;8.38;73.30
81931;BME280;71395;43.488;1.472;2024-03-02T05:57:51;98374.13;;;8.39;73.58
81931;BME280;71395;43.488;1.472;2024-03-02T06:00:33;98390.06;;;8.49;73.12
81931;BME280;71395;43.488;1.472;2024-03-02T06:02:58;98381.00;;;8.45;72.88
81931;BME280;71395;43.488;1.472;2024-03-02T06:05:24;98378.91;;;8.42;72.68
81931;BME280;71395;43.488;1.472;2024-03-02T06:07:50;98372.94;;;8.50;74.32
81931;BME280;71395;43.488;1.472;2024-03-02T06:10:16;98353.00;;;8.42;73.62
81931;BME280;71395;43.488;1.472;2024-03-02T06:12:42;98356.19;;;8.44;74.03
81931;BME280;71395;43.488;1.472;2024-03-02T06:15:09;98350.28;;;8.47;72.88
81931;BME280;71395;43.488;1.472;2024-03-02T06:17:35;98343.63;;;8.45;72.76
81931;BME280;71395;43.488;1.472;2024-03-02T06:20:01;98340.88;;;8.50;72.78
81931;BME280;71395;43.488;1.472;2024-03-02T06:22:27;98338.22;;;8.50;73.34
81931;BME280;71395;43.488;1.472;2024-03-02T06:24:53;98344.38;;;8.50;72.81
81931;BME280;71395;43.488;1.472;2024-03-02T06:27:18;98323.34;;;8.44;72.62
81931;BME280;71395;43.488;1.472;2024-03-02T06:29:44;98324.06;;;8.49;73.61
81931;BME280;71395;43.488;1.472;2024-03-02T06:32:10;98317.94;;;8.49;73.59
81931;BME280;71395;43.488;1.472;2024-03-02T06:34:35;98307.25;;;8.49;73.79
81931;BME280;71395;43.488;1.472;2024-03-02T06:37:01;98282.28;;;8.35;73.47
81931;BME280;71395;43.488;1.472;2024-03-02T06:39:27;98297.22;;;8.41;73.14
81931;BME280;71395;43.488;1.472;2024-03-02T06:41:53;98319.47;;;8.55;73.89
81931;BME280;71395;43.488;1.472;2024-03-02T06:44:19;98307.25;;;8.49;73.39
81931;BME280;71395;43.488;1.472;2024-03-02T06:46:44;98303.78;;;8.48;73.92
81931;BME280;71395;43.488;1.472;2024-03-02T06:49:10;98310.94;;;8.53;73.33
81931;BME280;71395;43.488;1.472;2024-03-02T06:51:36;98298.38;;;8.53;73.70
81931;BME280;71395;43.488;1.472;2024-03-02T06:54:02;98281.63;;;8.48;73.45
81931;BME280;71395;43.488;1.472;2024-03-02T06:56:27;98293.28;;;8.57;73.26
81931;BME280;71395;43.488;1.472;2024-03-02T06:58:53;98297.25;;;8.60;74.27
81931;BME280;71395;43.488;1.472;2024-03-02T07:01:19;98268.66;;;8.41;73.78
81931;BME280;71395;43.488;1.472;2024-03-02T07:03:47;98294.00;;;8.63;73.36
81931;BME280;71395;43.488;1.472;2024-03-02T07:06:13;98269.25;;;8.57;74.10
81931;BME280;71395;43.488;1.472;2024-03-02T07:08:39;98257.03;;;8.51;73.41
81931;BME280;71395;43.488;1.472;2024-03-02T07:11:05;98244.81;;;8.45;73.71
81931;BME280;71395;43.488;1.472;2024-03-02T07:13:30;98251.34;;;8.58;74.37
81931;BME280;71395;43.488;1.472;2024-03-02T07:15:56;98275.34;;;8.82;73.82
81931;BME280;71395;43.488;1.472;2024-03-02T07:18:28;98273.22;;;8.78;73.00
81931;BME280;71395;43.488;1.472;2024-03-02T07:20:53;98276.28;;;8.91;74.12
81931;BME280;71395;43.488;1.472;2024-03-02T07:23:21;98267.47;;;8.90;73.83
81931;BME280;71395;43.488;1.472;2024-03-02T07:25:49;98265.00;;;8.94;73.09
81931;BME280;71395;43.488;1.472;2024-03-02T07:28:15;98277.88;;;9.11;73.90
81931;BME280;71395;43.488;1.472;2024-03-02T07:30:41;98254.59;;;9.11;73.44
81931;BME280;71395;43.488;1.472;2024-03-02T07:33:07;98245.19;;;9.14;74.34
81931;BME280;71395;43.488;1.472;2024-03-02T07:35:33;98239.56;;;9.15;72.94
81931;BME280;71395;43.488;1.472;2024-03-02T07:37:58;98263.88;;;9.32;74.10
81931;BME280;71395;43.488;1.472;2024-03-02T07:40:25;98255.78;;;9.38;73.83
81931;BME280;71395;43.488;1.472;2024-03-02T07:42:51;98247.44;;;9.39;73.08
81931;BME280;71395;43.488;1.472;2024-03-02T07:45:16;98236.41;;;9.46;72.50
81931;BME280;71395;43.488;1.472;2024-03-02T07:47:42;98235.59;;;9.45;72.68
81931;BME280;71395;43.488;1.472;2024-03-02T07:50:08;98244.81;;;9.53;73.31
81931;BME280;71395;43.488;1.472;2024-03-02T07:52:34;98229.06;;;9.51;73.72
81931;BME280;71395;43.488;1.472;2024-03-02T07:55:00;98233.25;;;9.57;72.54
81931;BME280;71395;43.488;1.472;2024-03-02T07:57:26;98224.81;;;9.64;72.31
81931;BME280;71395;43.488;1.472;2024-03-02T07:59:52;98231.19;;;9.68;73.23
81931;BME280;71395;43.488;1.472;2024-03-02T08:02:17;98223.16;;;9.68;73.61
81931;BME280;71395;43.488;1.472;2024-03-02T08:04:43;98226.81;;;9.72;72.25
81931;BME280;71395;43.488;1.472;2024-03-02T08:07:11;98209.69;;;9.73;71.55
81931;BME280;71395;43.488;1.472;2024-03-02T08:09:37;98208.31;;;9.76;72.22
81931;BME280;71395;43.488;1.472;2024-03-02T08:12:02;98194.63;;;9.77;73.05
81931;BME280;71395;43.488;1.472;2024-03-02T08:14:29;98207.69;;;9.79;72.34
81931;BME280;71395;43.488;1.472;2024-03-02T08:16:54;98194.63;;;9.77;71.52
81931;BME280;71395;43.488;1.472;2024-03-02T08:19:22;98197.41;;;9.86;72.42
81931;BME280;71395;43.488;1.472;2024-03-02T08:21:48;98192.84;;;9.87;72.38
81931;BME280;71395;43.488;1.472;2024-03-02T08:24:15;98185.03;;;9.90;72.83
81931;BME280;71395;43.488;1.472;2024-03-02T08:26:40;98180.16;;;9.92;71.97
81931;BME280;71395;43.488;1.472;2024-03-02T08:29:06;98184.03;;;10.00;72.30
81931;BME280;71395;43.488;1.472;2024-03-02T08:31:32;98184.63;;;10.10;72.20
81931;BME280;71395;43.488;1.472;2024-03-02T08:33:58;98175.69;;;10.15;72.10
81931;BME280;71395;43.488;1.472;2024-03-02T08:36:24;98160.41;;;10.16;73.08
81931;BME280;71395;43.488;1.472;2024-03-02T08:38:50;98163.09;;;10.29;72.71
81931;BME280;71395;43.488;1.472;2024-03-02T08:41:16;98160.47;;;10.38;72.52
81931;BME280;71395;43.488;1.472;2024-03-02T08:43:42;98171.75;;;10.49;72.30
81931;BME280;71395;43.488;1.472;2024-03-02T08:46:08;98145.03;;;10.35;71.22
81931;BME280;71395;43.488;1.472;2024-03-02T08:48:34;98152.22;;;10.48;72.20
81931;BME280;71395;43.488;1.472;2024-03-02T08:51:01;98149.63;;;10.57;71.13
81931;BME280;71395;43.488;1.472;2024-03-02T08:53:30;98158.03;;;10.64;71.38
81931;BME280;71395;43.488;1.472;2024-03-02T08:55:55;98144.03;;;10.67;71.47
81931;BME280;71395;43.488;1.472;2024-03-02T08:58:21;98144.69;;;10.73;71.40
81931;BME280;71395;43.488;1.472;2024-03-02T09:00:47;98134.75;;;10.73;71.56
81931;BME280;71395;43.488;1.472;2024-03-02T09:03:13;98101.06;;;10.58;70.67
81931;BME280;71395;43.488;1.472;2024-03-02T09:05:40;98123.13;;;10.78;70.41
81931;BME280;71395;43.488;1.472;2024-03-02T09:08:06;98130.56;;;10.81;71.61
81931;BME280;71395;43.488;1.472;2024-03-02T09:10:32;98128.38;;;10.83;71.16
81931;BME280;71395;43.488;1.472;2024-03-02T09:12:58;98128.91;;;10.94;70.90
81931;BME280;71395;43.488;1.472;2024-03-02T09:15:24;98110.16;;;10.94;71.12
81931;BME280;71395;43.488;1.472;2024-03-02T09:17:50;98104.78;;;10.94;70.82
81931;BME280;71395;43.488;1.472;2024-03-02T09:20:16;98113.72;;;11.11;71.22
81931;BME280;71395;43.488;1.472;2024-03-02T09:22:42;98110.59;;;11.18;70.51
81931;BME280;71395;43.488;1.472;2024-03-02T09:25:08;98108.44;;;11.20;70.48
81931;BME280;71395;43.488;1.472;2024-03-02T09:27:38;98091.53;;;11.20;70.48
81931;BME280;71395;43.488;1.472;2024-03-02T09:30:07;98100.09;;;11.30;71.43
81931;BME280;71395;43.488;1.472;2024-03-02T09:32:34;98103.78;;;11.43;71.31
81931;BME280;71395;43.488;1.472;2024-03-02T09:35:00;98063.94;;;11.28;70.01
81931;BME280;71395;43.488;1.472;2024-03-02T09:37:26;98097.84;;;11.55;70.37
81931;BME280;71395;43.488;1.472;2024-03-02T09:39:52;98086.47;;;11.58;70.53
81931;BME280;71395;43.488;1.472;2024-03-02T09:42:18;98098.66;;;11.73;71.08
81931;BME280;71395;43.488;1.472;2024-03-02T09:44:44;98076.91;;;11.74;70.59
81931;BME280;71395;43.488;1.472;2024-03-02T09:47:10;98079.44;;;11.79;70.08
81931;BME280;71395;43.488;1.472;2024-03-02T09:49:36;98051.81;;;11.79;70.08
81931;BME280;71395;43.488;1.472;2024-03-02T09:52:03;98048.19;;;11.83;70.81
81931;BME280;71395;43.488;1.472;2024-03-02T09:54:30;98044.72;;;11.92;70.83
81931;BME280;71395;43.488;1.472;2024-03-02T09:56:56;98042.38;;;11.90;70.47
81931;BME280;71395;43.488;1.472;2024-03-02T09:59:22;98046.16;;;11.98;71.34
81931;BME280;71395;43.488;1.472;2024-03-02T10:01:58;98048.22;;;12.01;70.84
81931;BME280;71395;43.488;1.472;2024-03-02T10:04:26;98037.78;;;12.08;71.48
81931;BME280;71395;43.488;1.472;2024-03-02T10:09:34;98028.66;;;12.09;71.29
81931;BME280;71395;43.488;1.472;2024-03-02T10:12:08;98041.91;;;12.14;71.72
81931;BME280;71395;43.488;1.472;2024-03-02T10:14:34;98043.97;;;12.17;71.59
81931;BME280;71395;43.488;1.472;2024-03-02T10:17:07;98045.84;;;12.16;71.31
81931;BME280;71395;43.488;1.472;2024-03-02T10:19:34;98030.38;;;12.05;71.76
81931;BME280;71395;43.488;1.472;2024-03-02T10:22:07;98029.13;;;12.11;70.92
81931;BME280;71395;43.488;1.472;2024-03-02T10:24:37;98029.13;;;12.11;71.34
81931;BME280;71395;43.488;1.472;2024-03-02T10:27:14;98017.25;;;12.12;71.47
81931;BME280;71395;43.488;1.472;2024-03-02T10:29:40;98008.09;;;12.13;70.88
81931;BME280;71395;43.488;1.472;2024-03-02T10:32:10;97999.56;;;12.20;71.81
81931;BME280;71395;43.488;1.472;2024-03-02T10:34:37;98005.06;;;12.23;71.69
81931;BME280;71395;43.488;1.472;2024-03-02T10:37:06;98008.09;;;12.30;71.51
81931;BME280;71395;43.488;1.472;2024-03-02T10:39:34;98006.03;;;12.36;71.26
81931;BME280;71395;43.488;1.472;2024-03-02T10:42:02;97997.63;;;12.37;71.56
81931;BME280;71395;43.488;1.472;2024-03-02T10:44:30;97994.66;;;12.39;71.27
81931;BME280;71395;43.488;1.472;2024-03-02T10:46:58;97988.94;;;12.40;71.62
81931;BME280;71395;43.488;1.472;2024-03-02T10:49:26;97988.16;;;12.49;71.64
81931;BME280;71395;43.488;1.472;2024-03-02T10:51:53;97973.28;;;12.42;71.33
81931;BME280;71395;43.488;1.472;2024-03-02T10:54:18;97956.53;;;12.46;71.35
81931;BME280;71395;43.488;1.472;2024-03-02T10:56:52;97957.31;;;12.55;71.36
81931;BME280;71395;43.488;1.472;2024-03-02T10:59:27;97967.72;;;12.65;71.06
81931;BME280;71395;43.488;1.472;2024-03-02T11:01:59;97953.34;;;12.61;71.16
81931;BME280;71395;43.488;1.472;2024-03-02T11:04:27;97959.66;;;12.65;71.67
81931;BME280;71395;43.488;1.472;2024-03-02T11:07:05;97956.16;;;12.73;70.88
81931;BME280;71395;43.488;1.472;2024-03-02T11:09:34;97949.97;;;12.73;70.86
81931;BME280;71395;43.488;1.472;2024-03-02T11:14:25;97952.00;;;12.84;71.49
81931;BME280;71395;43.488;1.472;2024-03-02T11:16:51;97938.38;;;12.89;70.96
81931;BME280;71395;43.488;1.472;2024-03-02T11:19:18;97944.31;;;13.04;70.69
81931;BME280;71395;43.488;1.472;2024-03-02T11:21:44;97930.69;;;13.09;70.17
81931;BME280;71395;43.488;1.472;2024-03-02T11:26:53;97897.13;;;13.06;70.60
81931;BME280;71395;43.488;1.472;2024-03-02T11:32:12;97895.47;;;13.23;69.97
81931;BME280;71395;43.488;1.472;2024-03-02T11:34:41;97893.31;;;13.37;70.26
81931;BME280;71395;43.488;1.472;2024-03-02T11:37:11;97888.47;;;13.30;69.59
81931;BME280;71395;43.488;1.472;2024-03-02T11:39:38;97896.59;;;13.42;69.33
81931;BME280;71395;43.488;1.472;2024-03-02T11:42:07;97881.13;;;13.39;68.90
81931;BME280;71395;43.488;1.472;2024-03-02T11:44:35;97882.69;;;13.40;69.32
81931;BME280;71395;43.488;1.472;2024-03-02T11:47:02;97878.44;;;13.39;69.63
81931;BME280;71395;43.488;1.472;2024-03-02T11:49:49;97871.09;;;13.49;68.27
81931;BME280;71395;43.488;1.472;2024-03-02T11:52:17;97865.03;;;13.52;68.96
81931;BME280;71395;43.488;1.472;2024-03-02T11:54:45;97870.50;;;13.64;69.03
81931;BME280;71395;43.488;1.472;2024-03-02T11:57:16;97860.38;;;13.61;69.04
81931;BME280;71395;43.488;1.472;2024-03-02T11:59:43;97864.69;;;13.74;68.90
81931;BME280;71395;43.488;1.472;2024-03-02T12:02:16;97831.47;;;13.70;68.80
81931;BME280;71395;43.488;1.472;2024-03-02T12:04:43;97838.56;;;13.75;68.32
81931;BME280;71395;43.488;1.472;2024-03-02T12:07:10;97839.47;;;13.79;68.00
81931;BME280;71395;43.488;1.472;2024-03-02T12:09:36;97829.72;;;13.86;68.59
81931;BME280;71395;43.488;1.472;2024-03-02T12:12:06;97805.03;;;13.84;68.47
81931;BME280;71395;43.488;1.472;2024-03-02T12:14:33;97817.88;;;14.00;68.32
81931;BME280;71395;43.488;1.472;2024-03-02T12:16:59;97819.00;;;14.11;67.86
81931;BME280;71395;43.488;1.472;2024-03-02T12:19:26;97795.88;;;14.10;67.62
81931;BME280;71395;43.488;1.472;2024-03-02T12:21:53;97791.06;;;14.15;68.02
81931;BME280;71395;43.488;1.472;2024-03-02T12:24:21;97790.41;;;14.18;67.94
81931;BME280;71395;43.488;1.472;2024-03-02T12:26:49;97776.81;;;14.15;68.18
81931;BME280;71395;43.488;1.472;2024-03-02T12:29:18;97765.38;;;14.18;68.47
81931;BME280;71395;43.488;1.472;2024-03-02T12:31:44;97760.66;;;14.27;67.38
81931;BME280;71395;43.488;1.472;2024-03-02T12:34:14;97776.03;;;14.39;67.82
81931;BME280;71395;43.488;1.472;2024-03-02T12:36:41;97780.84;;;14.45;67.35
81931;BME280;71395;43.488;1.472;2024-03-02T12:39:10;97781.78;;;14.50;68.09
81931;BME280;71395;43.488;1.472;2024-03-02T12:41:37;97751.44;;;14.40;67.96
81931;BME280;71395;43.488;1.472;2024-03-02T12:44:06;97737.94;;;14.40;67.33
81931;BME280;71395;43.488;1.472;2024-03-02T12:46:32;97724.72;;;14.47;67.18
81931;BME280;71395;43.488;1.472;2024-03-02T12:49:04;97728.75;;;14.54;67.51
81931;BME280;71395;43.488;1.472;2024-03-02T12:51:30;97718.84;;;14.45;67.12
81931;BME280;71395;43.488;1.472;2024-03-02T12:54:00;97724.50;;;14.53;67.54
81931;BME280;71395;43.488;1.472;2024-03-02T12:56:26;97724.94;;;14.55;67.69
81931;BME280;71395;43.488;1.472;2024-03-02T12:58:56;97724.72;;;14.60;66.97
81931;BME280;71395;43.488;1.472;2024-03-02T13:01:24;97720.44;;;14.59;66.66
81931;BME280;71395;43.488;1.472;2024-03-02T13:03:55;97715.06;;;14.59;66.64
81931;BME280;71395;43.488;1.472;2024-03-02T13:06:22;97714.81;;;14.52;66.69
81931;BME280;71395;43.488;1.472;2024-03-02T13:08:49;97691.44;;;14.43;67.12
81931;BME280;71395;43.488;1.472;2024-03-02T13:11:16;97704.03;;;14.52;66.64
81931;BME280;71395;43.488;1.472;2024-03-02T13:13:42;97702.69;;;14.45;67.20
81931;BME280;71395;43.488;1.472;2024-03-02T13:16:12;97692.13;;;14.40;66.71
81931;BME280;71395;43.488;1.472;2024-03-02T13:18:41;97671.38;;;14.29;66.34